createdAt,value
2022-11-25T00:00:17.235Z,82.89
2022-11-25T00:00:49.522Z,82.75
2022-11-25T00:01:24.086Z,82.91
2022-11-25T00:01:55.984Z,83.09
2022-11-25T00:02:27.922Z,83.37
2022-11-25T00:03:00.145Z,83.50
2022-11-25T00:03:32.164Z,83.21
2022-11-25T00:04:04.264Z,83.02
2022-11-25T00:04:37.293Z,82.98
2022-11-25T00:05:09.504Z,82.77
2022-11-25T00:05:41.508Z,82.12
2022-11-25T00:06:35.577Z,82.11
2022-11-25T00:07:07.466Z,82.56
2022-11-25T00:07:39.434Z,82.51
2022-11-25T00:08:11.522Z,82.38
2022-11-25T00:08:45.218Z,81.98
2022-11-25T00:09:17.077Z,81.83
2022-11-25T00:09:48.918Z,81.95
2022-11-25T00:10:20.749Z,81.96
2022-11-25T00:10:52.597Z,81.84
2022-11-25T00:11:25.291Z,82.05
2022-11-25T00:11:57.216Z,82.06
2022-11-25T00:12:29.179Z,82.30
2022-11-25T00:13:01.104Z,82.19
2022-11-25T00:13:33.331Z,82.23
2022-11-25T00:14:06.341Z,81.96
2022-11-25T00:14:38.220Z,81.77
2022-11-25T00:15:10.160Z,81.68
2022-11-25T00:15:41.990Z,81.64
2022-11-25T00:16:16.664Z,81.62
2022-11-25T00:16:49.095Z,82.04
2022-11-25T00:17:20.993Z,81.97
2022-11-25T00:17:53.027Z,81.68
2022-11-25T00:18:24.907Z,82.08
2022-11-25T00:18:58.337Z,81.88
2022-11-25T00:19:30.304Z,81.94
2022-11-25T00:20:04.643Z,82.10
2022-11-25T00:20:37.567Z,82.02
2022-11-25T00:21:11.884Z,82.00
2022-11-25T00:21:43.945Z,81.84
2022-11-25T00:22:16.076Z,82.36
2022-11-25T00:22:48.252Z,82.60
2022-11-25T00:23:20.145Z,83.06
2022-11-25T00:23:57.277Z,83.35
2022-11-25T00:24:29.165Z,83.56
2022-11-25T00:25:00.975Z,82.79
2022-11-25T00:25:32.876Z,82.88
2022-11-25T00:26:15.142Z,83.28
2022-11-25T00:26:47.085Z,83.89
2022-11-25T00:27:19.238Z,83.57
2022-11-25T00:27:53.034Z,83.30
2022-11-25T00:28:24.934Z,82.96
2022-11-25T00:28:59.561Z,83.36
2022-11-25T00:29:31.527Z,83.52
2022-11-25T00:30:04.611Z,84.13
2022-11-25T00:30:36.850Z,84.11
2022-11-25T00:31:10.714Z,83.94
2022-11-25T00:31:42.947Z,83.85
2022-11-25T00:32:15.538Z,83.27
2022-11-25T00:32:47.869Z,83.29
2022-11-25T00:33:19.865Z,84.06
2022-11-25T00:33:52.669Z,84.78
2022-11-25T00:34:25.217Z,84.99
2022-11-25T00:34:57.387Z,84.50
2022-11-25T00:35:29.254Z,84.01
2022-11-25T00:36:02.975Z,84.33
2022-11-25T00:36:37.023Z,84.23
2022-11-25T00:37:08.911Z,84.05
2022-11-25T00:37:43.124Z,84.27
2022-11-25T00:38:15.262Z,84.33
2022-11-25T00:38:47.516Z,84.11
2022-11-25T00:39:20.055Z,83.79
2022-11-25T00:39:51.922Z,83.60
2022-11-25T00:40:23.808Z,83.57
2022-11-25T00:41:14.186Z,83.60
2022-11-25T00:42:05.778Z,83.77
2022-11-25T00:42:56.346Z,83.81
2022-11-25T00:43:47.072Z,84.01
2022-11-25T00:44:39.641Z,84.55
2022-11-25T00:45:11.813Z,84.82
2022-11-25T00:45:43.880Z,84.56
2022-11-25T00:46:15.810Z,83.98
2022-11-25T00:46:47.802Z,84.16
2022-11-25T00:47:21.358Z,84.15
2022-11-25T00:47:54.347Z,84.08
2022-11-25T00:48:26.139Z,83.85
2022-11-25T00:48:58.751Z,83.34
2022-11-25T00:49:30.981Z,83.10
2022-11-25T00:50:03.001Z,82.92
2022-11-25T00:50:34.908Z,82.33
2022-11-25T00:51:06.768Z,82.33
2022-11-25T00:51:39.595Z,82.25
2022-11-25T00:52:17.015Z,82.44
2022-11-25T00:52:49.155Z,82.14
2022-11-25T00:53:20.990Z,81.90
2022-11-25T00:53:57.523Z,81.65
2022-11-25T00:54:31.267Z,81.27
2022-11-25T00:55:04.282Z,81.48
2022-11-25T00:55:56.075Z,82.41
2022-11-25T00:56:30.310Z,82.49
2022-11-25T00:57:03.098Z,82.34
2022-11-25T00:57:35.405Z,81.88
2022-11-25T00:58:07.277Z,81.74
2022-11-25T00:58:43.147Z,81.70
2022-11-25T00:59:15.408Z,81.61
2022-11-25T00:59:47.901Z,81.86
2022-11-25T01:00:19.970Z,81.99
2022-11-25T01:00:51.940Z,82.17
2022-11-25T01:01:26.858Z,82.76
2022-11-25T01:01:58.916Z,83.01
2022-11-25T01:02:31.765Z,83.03
2022-11-25T01:03:03.654Z,83.20
2022-11-25T01:03:38.377Z,83.25
2022-11-25T01:04:10.546Z,83.32
2022-11-25T01:04:43.076Z,83.72
2022-11-25T01:05:15.336Z,83.89
2022-11-25T01:05:47.147Z,83.81
2022-11-25T01:06:19.836Z,83.41
2022-11-25T01:06:51.693Z,82.79
2022-11-25T01:07:23.527Z,82.16
2022-11-25T01:07:55.371Z,81.84
2022-11-25T01:08:29.209Z,81.72
2022-11-25T01:09:04.538Z,82.16
2022-11-25T01:09:37.585Z,82.55
2022-11-25T01:10:09.779Z,82.30
2022-11-25T01:10:43.439Z,82.13
2022-11-25T01:11:18.588Z,82.04
2022-11-25T01:11:51.504Z,81.77
2022-11-25T01:12:23.345Z,81.44
2022-11-25T01:12:56.310Z,81.12
2022-11-25T01:13:28.431Z,81.01
2022-11-25T01:14:01.674Z,80.87
2022-11-25T01:14:34.759Z,81.04
2022-11-25T01:15:07.534Z,80.96
2022-11-25T01:15:39.616Z,81.11
2022-11-25T01:16:15.747Z,80.99
2022-11-25T01:16:48.667Z,81.04
2022-11-25T01:17:20.592Z,81.18
2022-11-25T01:17:52.463Z,81.30
2022-11-25T01:18:24.317Z,81.26
2022-11-25T01:19:00.553Z,80.82
2022-11-25T01:19:32.862Z,80.88
2022-11-25T01:20:05.357Z,81.30
2022-11-25T01:20:37.238Z,81.56
2022-11-25T01:21:13.234Z,81.11
2022-11-25T01:21:45.573Z,81.26
2022-11-25T01:22:17.491Z,81.61
2022-11-25T01:22:51.832Z,81.92
2022-11-25T01:23:23.655Z,82.17
2022-11-25T01:24:01.641Z,82.00
2022-11-25T01:24:33.848Z,82.58
2022-11-25T01:25:06.170Z,82.69
2022-11-25T01:25:39.120Z,82.36
2022-11-25T01:26:17.050Z,82.16
2022-11-25T01:26:49.382Z,81.83
2022-11-25T01:27:21.262Z,82.05
2022-11-25T01:27:54.247Z,82.22
2022-11-25T01:28:26.200Z,82.08
2022-11-25T01:29:03.637Z,81.84
2022-11-25T01:29:41.461Z,81.62
2022-11-25T01:30:14.563Z,81.76
2022-11-25T01:30:46.429Z,81.48
2022-11-25T01:31:20.585Z,81.47
2022-11-25T01:31:56.353Z,81.29
2022-11-25T01:32:28.261Z,81.14
2022-11-25T01:33:00.144Z,81.00
2022-11-25T01:33:32.871Z,80.87
2022-11-25T01:34:11.323Z,80.73
2022-11-25T01:34:43.230Z,80.67
2022-11-25T01:35:15.111Z,80.55
2022-11-25T01:35:47.114Z,80.55
2022-11-25T01:36:19.427Z,80.62
2022-11-25T01:36:51.511Z,80.56
2022-11-25T01:37:23.615Z,80.96
2022-11-25T01:37:55.470Z,80.96
2022-11-25T01:38:29.902Z,80.68
2022-11-25T01:39:01.782Z,80.64
2022-11-25T01:39:33.652Z,80.83
2022-11-25T01:40:06.529Z,80.92
2022-11-25T01:40:38.388Z,81.16
2022-11-25T01:41:13.101Z,81.77
2022-11-25T01:41:46.069Z,82.28
2022-11-25T01:42:18.074Z,82.57
2022-11-25T01:42:50.289Z,82.74
2022-11-25T01:43:22.140Z,82.68
2022-11-25T01:44:12.399Z,82.48
2022-11-25T01:44:44.398Z,82.46
2022-11-25T01:45:23.168Z,82.26
2022-11-25T01:46:10.906Z,81.52
2022-11-25T01:46:47.033Z,80.93
2022-11-25T01:47:24.467Z,81.01
2022-11-25T01:48:02.268Z,81.42
2022-11-25T01:48:45.214Z,81.51
2022-11-25T01:49:24.601Z,81.07
2022-11-25T01:50:02.179Z,81.28
2022-11-25T01:50:36.420Z,81.30
2022-11-25T01:51:47.001Z,81.33
2022-11-25T01:52:27.126Z,81.62
2022-11-25T01:53:04.772Z,82.11
2022-11-25T01:53:36.731Z,82.07
2022-11-25T01:54:12.589Z,81.85
2022-11-25T01:54:51.300Z,81.58
2022-11-25T01:55:29.983Z,81.45
2022-11-25T01:56:04.078Z,81.20
2022-11-25T01:56:45.835Z,81.04
2022-11-25T01:57:27.116Z,81.33
2022-11-25T01:58:09.154Z,81.37
2022-11-25T01:58:42.470Z,81.04
2022-11-25T01:59:14.511Z,80.73
2022-11-25T01:59:50.568Z,81.12
2022-11-25T02:00:22.536Z,81.01
2022-11-25T02:00:54.728Z,81.30
2022-11-25T02:01:26.873Z,81.52
2022-11-25T02:02:00.916Z,81.10
2022-11-25T02:02:32.855Z,80.61
2022-11-25T02:03:05.794Z,80.84
2022-11-25T02:03:43.036Z,81.14
2022-11-25T02:04:20.552Z,81.43
2022-11-25T02:04:52.856Z,81.69
2022-11-25T02:05:51.062Z,81.73
2022-11-25T02:06:26.907Z,82.16
2022-11-25T02:07:06.238Z,82.14
2022-11-25T02:07:41.127Z,82.10
2022-11-25T02:08:13.527Z,82.50
2022-11-25T02:08:50.000Z,82.63
2022-11-25T02:09:23.475Z,81.96
2022-11-25T02:09:56.116Z,82.05
2022-11-25T02:10:30.855Z,81.95
2022-11-25T02:11:06.053Z,81.89
2022-11-25T02:11:40.510Z,82.16
2022-11-25T02:12:14.463Z,82.44
2022-11-25T02:12:47.952Z,82.38
2022-11-25T02:13:21.317Z,82.38
2022-11-25T02:13:54.049Z,82.36
2022-11-25T02:14:27.130Z,82.32
2022-11-25T02:14:59.868Z,82.26
2022-11-25T02:15:35.049Z,81.75
2022-11-25T02:16:08.779Z,81.61
2022-11-25T02:16:40.731Z,81.52
2022-11-25T02:17:13.696Z,81.81
2022-11-25T02:17:46.136Z,82.18
2022-11-25T02:18:18.191Z,82.00
2022-11-25T02:18:51.230Z,81.67
2022-11-25T02:19:30.918Z,81.61
2022-11-25T02:20:05.797Z,81.51
2022-11-25T02:20:39.264Z,81.53
2022-11-25T02:21:13.873Z,81.08
2022-11-25T02:21:50.424Z,81.00
2022-11-25T02:22:37.793Z,80.62
2022-11-25T02:23:34.827Z,81.15
2022-11-25T02:24:21.080Z,80.77
2022-11-25T02:25:01.459Z,80.69
2022-11-25T02:25:35.954Z,81.18
2022-11-25T02:26:09.176Z,81.81
2022-11-25T02:26:41.555Z,82.28
2022-11-25T02:27:13.797Z,82.14
2022-11-25T02:27:49.981Z,82.08
2022-11-25T02:28:25.206Z,82.26
2022-11-25T02:28:57.527Z,82.41
2022-11-25T02:29:30.247Z,82.27
2022-11-25T02:30:02.802Z,82.10
2022-11-25T02:30:35.044Z,81.93
2022-11-25T02:31:08.161Z,81.03
2022-11-25T02:31:40.244Z,81.10
2022-11-25T02:32:12.519Z,81.50
2022-11-25T02:32:47.188Z,81.59
2022-11-25T02:33:20.579Z,81.59
2022-11-25T02:33:52.519Z,81.75
2022-11-25T02:34:24.386Z,81.87
2022-11-25T02:34:56.352Z,81.97
2022-11-25T02:35:33.193Z,82.14
2022-11-25T02:36:11.597Z,81.65
2022-11-25T02:36:44.336Z,81.54
2022-11-25T02:37:18.816Z,81.51
2022-11-25T02:37:50.922Z,81.59
2022-11-25T02:38:37.876Z,81.66
2022-11-25T02:39:12.768Z,81.40
2022-11-25T02:39:47.475Z,81.30
2022-11-25T02:40:19.634Z,81.60
2022-11-25T02:41:24.530Z,82.37
2022-11-25T02:41:59.917Z,83.08
2022-11-25T02:42:32.249Z,85.49
2022-11-25T02:43:04.131Z,87.85
2022-11-25T02:43:36.256Z,88.65
2022-11-25T02:44:08.147Z,89.14
2022-11-25T02:44:40.282Z,88.50
2022-11-25T02:45:18.041Z,87.75
2022-11-25T02:45:59.804Z,87.12
2022-11-25T02:46:32.077Z,86.54
2022-11-25T02:47:06.277Z,86.21
2022-11-25T02:47:38.545Z,86.29
2022-11-25T02:48:10.613Z,86.10
2022-11-25T02:49:08.059Z,85.77
2022-11-25T02:49:35.286Z,85.73
2022-11-25T02:50:07.908Z,84.91
2022-11-25T02:50:39.949Z,84.73
2022-11-25T02:51:15.451Z,84.54
2022-11-25T02:51:48.180Z,84.38
2022-11-25T02:52:22.222Z,84.06
2022-11-25T02:52:54.460Z,83.53
2022-11-25T02:53:27.058Z,83.17
2022-11-25T02:54:00.383Z,83.08
2022-11-25T02:54:32.443Z,82.78
2022-11-25T02:55:06.284Z,82.36
2022-11-25T02:55:38.674Z,82.12
2022-11-25T02:56:12.692Z,82.18
2022-11-25T02:56:44.574Z,81.89
2022-11-25T02:57:16.441Z,82.28
2022-11-25T02:57:48.289Z,82.37
2022-11-25T02:58:20.829Z,82.64
2022-11-25T02:58:52.819Z,82.60
2022-11-25T02:59:24.657Z,82.24
2022-11-25T02:59:56.626Z,82.23
2022-11-25T03:00:28.731Z,82.49
2022-11-25T03:01:00.671Z,82.58
2022-11-25T03:01:33.039Z,82.39
2022-11-25T03:02:05.127Z,82.11
2022-11-25T03:02:37.182Z,82.34
2022-11-25T03:03:09.776Z,82.65
2022-11-25T03:03:41.902Z,83.35
2022-11-25T03:04:14.011Z,83.39
2022-11-25T03:04:45.830Z,83.56
2022-11-25T03:05:17.701Z,83.53
2022-11-25T03:05:49.579Z,83.29
2022-11-25T03:06:21.445Z,83.29
2022-11-25T03:06:53.285Z,83.74
2022-11-25T03:07:25.202Z,83.67
2022-11-25T03:07:57.910Z,83.60
2022-11-25T03:08:29.990Z,83.37
2022-11-25T03:09:02.755Z,83.39
2022-11-25T03:09:35.289Z,82.77
2022-11-25T03:10:07.428Z,82.40
2022-11-25T03:10:39.872Z,81.92
2022-11-25T03:11:11.948Z,81.98
2022-11-25T03:12:02.486Z,82.27
2022-11-25T03:12:34.348Z,82.29
2022-11-25T03:13:07.723Z,83.04
2022-11-25T03:13:39.713Z,82.67
2022-11-25T03:14:12.474Z,81.94
2022-11-25T03:14:44.346Z,81.64
2022-11-25T03:15:16.898Z,81.67
2022-11-25T03:15:49.603Z,82.08
2022-11-25T03:16:21.476Z,82.41
2022-11-25T03:16:53.452Z,82.40
2022-11-25T03:17:25.544Z,82.66
2022-11-25T03:17:59.408Z,83.12
2022-11-25T03:18:32.332Z,83.43
2022-11-25T03:19:05.051Z,83.24
2022-11-25T03:19:37.375Z,82.58
2022-11-25T03:20:10.295Z,82.61
2022-11-25T03:20:42.158Z,82.94
2022-11-25T03:21:14.022Z,82.72
2022-11-25T03:21:45.876Z,82.34
2022-11-25T03:22:17.785Z,82.34
2022-11-25T03:22:49.723Z,82.29
2022-11-25T03:23:22.263Z,82.29
2022-11-25T03:23:54.167Z,82.31
2022-11-25T03:24:26.101Z,82.52
2022-11-25T03:24:58.406Z,82.76
2022-11-25T03:25:30.817Z,82.70
2022-11-25T03:26:06.544Z,82.63
2022-11-25T03:26:38.387Z,82.35
2022-11-25T03:27:10.346Z,82.22
2022-11-25T03:27:43.300Z,82.19
2022-11-25T03:28:15.200Z,82.09
2022-11-25T03:28:48.055Z,82.01
2022-11-25T03:29:20.803Z,82.35
2022-11-25T03:29:52.786Z,82.49
2022-11-25T03:30:28.340Z,82.79
2022-11-25T03:31:00.935Z,83.17
2022-11-25T03:31:34.306Z,83.43
2022-11-25T03:32:09.481Z,82.90
2022-11-25T03:32:42.848Z,82.50
2022-11-25T03:33:16.092Z,82.07
2022-11-25T03:33:50.111Z,81.94
2022-11-25T03:34:22.049Z,81.90
2022-11-25T03:34:54.507Z,81.72
2022-11-25T03:35:27.525Z,81.91
2022-11-25T03:35:59.517Z,82.19
2022-11-25T03:36:31.630Z,82.33
2022-11-25T03:37:03.721Z,82.49
2022-11-25T03:37:35.876Z,82.48
2022-11-25T03:38:07.736Z,82.32
2022-11-25T03:38:40.591Z,82.52
2022-11-25T03:39:12.483Z,82.04
2022-11-25T03:39:44.342Z,81.54
2022-11-25T03:40:16.912Z,81.58
2022-11-25T03:40:50.507Z,81.31
2022-11-25T03:41:22.596Z,81.23
2022-11-25T03:41:54.898Z,81.30
2022-11-25T03:42:27.000Z,80.93
2022-11-25T03:42:59.986Z,80.74
2022-11-25T03:43:33.160Z,80.86
2022-11-25T03:44:05.089Z,81.05
2022-11-25T03:44:38.713Z,81.06
2022-11-25T03:45:13.565Z,80.88
2022-11-25T03:45:49.316Z,80.56
2022-11-25T03:46:22.304Z,80.93
2022-11-25T03:46:54.439Z,81.40
2022-11-25T03:47:26.362Z,81.55
2022-11-25T03:47:58.210Z,81.50
2022-11-25T03:48:31.887Z,81.42
2022-11-25T03:49:04.014Z,81.96
2022-11-25T03:49:36.020Z,81.35
2022-11-25T03:50:09.008Z,81.15
2022-11-25T03:50:42.253Z,81.14
2022-11-25T03:51:14.244Z,81.31
2022-11-25T03:51:46.842Z,81.48
2022-11-25T03:52:19.963Z,81.43
2022-11-25T03:52:51.842Z,81.31
2022-11-25T03:53:24.494Z,81.46
2022-11-25T03:53:56.595Z,81.71
2022-11-25T03:54:29.192Z,81.95
2022-11-25T03:55:03.929Z,82.55
2022-11-25T03:55:36.167Z,82.86
2022-11-25T03:56:08.770Z,83.08
2022-11-25T03:56:40.850Z,82.57
2022-11-25T03:57:13.323Z,82.26
2022-11-25T03:57:45.195Z,82.45
2022-11-25T03:58:17.274Z,82.81
2022-11-25T03:58:49.255Z,83.31
2022-11-25T03:59:21.313Z,83.80
2022-11-25T03:59:55.981Z,83.65
2022-11-25T04:00:27.814Z,83.67
2022-11-25T04:01:04.481Z,83.46
2022-11-25T04:01:40.158Z,82.73
2022-11-25T04:02:16.043Z,82.52
2022-11-25T04:02:48.075Z,82.45
2022-11-25T04:03:20.354Z,82.19
2022-11-25T04:03:52.226Z,82.08
2022-11-25T04:04:24.403Z,82.20
2022-11-25T04:04:57.930Z,81.96
2022-11-25T04:05:29.773Z,82.00
2022-11-25T04:06:03.175Z,81.73
2022-11-25T04:06:35.300Z,81.47
2022-11-25T04:07:07.310Z,81.47
2022-11-25T04:07:39.669Z,81.76
2022-11-25T04:08:12.057Z,81.84
2022-11-25T04:08:44.206Z,81.94
2022-11-25T04:09:16.375Z,82.24
2022-11-25T04:09:48.366Z,82.33
2022-11-25T04:10:21.040Z,82.13
2022-11-25T04:10:53.159Z,82.09
2022-11-25T04:11:49.175Z,82.03
2022-11-25T04:12:39.676Z,82.06
2022-11-25T04:13:11.855Z,81.76
2022-11-25T04:13:44.110Z,81.76
2022-11-25T04:14:16.364Z,82.09
2022-11-25T04:14:48.249Z,82.66
2022-11-25T04:15:20.122Z,82.88
2022-11-25T04:15:53.872Z,83.61
2022-11-25T04:16:26.898Z,83.77
2022-11-25T04:16:59.375Z,83.66
2022-11-25T04:17:31.364Z,82.80
2022-11-25T04:18:03.409Z,82.23
2022-11-25T04:18:37.280Z,81.15
2022-11-25T04:19:09.153Z,80.93
2022-11-25T04:19:41.154Z,80.69
2022-11-25T04:20:14.683Z,80.19
2022-11-25T04:20:47.385Z,80.25
2022-11-25T04:21:19.254Z,80.41
2022-11-25T04:21:52.550Z,81.15
2022-11-25T04:22:24.943Z,81.56
2022-11-25T04:22:57.324Z,81.82
2022-11-25T04:23:29.342Z,81.57
2022-11-25T04:24:01.622Z,81.68
2022-11-25T04:24:33.619Z,81.70
2022-11-25T04:25:08.467Z,81.59
2022-11-25T04:25:41.544Z,81.46
2022-11-25T04:26:14.508Z,81.58
2022-11-25T04:26:46.408Z,81.37
2022-11-25T04:27:20.486Z,81.48
2022-11-25T04:27:52.654Z,81.43
2022-11-25T04:28:25.285Z,81.07
2022-11-25T04:28:57.467Z,81.04
2022-11-25T04:29:29.303Z,80.90
2022-11-25T04:30:01.347Z,80.81
2022-11-25T04:30:34.325Z,80.81
2022-11-25T04:31:08.411Z,80.92
2022-11-25T04:31:40.568Z,80.80
2022-11-25T04:32:12.539Z,80.55
2022-11-25T04:32:44.671Z,80.29
2022-11-25T04:33:16.954Z,79.62
2022-11-25T04:33:52.568Z,80.07
2022-11-25T04:34:25.047Z,79.72
2022-11-25T04:34:57.243Z,79.21
2022-11-25T04:35:29.714Z,79.79
2022-11-25T04:36:01.992Z,80.48
2022-11-25T04:36:34.199Z,80.51
2022-11-25T04:37:06.083Z,80.62
2022-11-25T04:37:37.957Z,80.27
2022-11-25T04:38:10.132Z,80.28
2022-11-25T04:38:42.308Z,80.31
2022-11-25T04:39:14.210Z,80.25
2022-11-25T04:39:46.188Z,80.46
2022-11-25T04:40:19.994Z,81.04
2022-11-25T04:40:52.416Z,81.35
2022-11-25T04:41:24.499Z,81.65
2022-11-25T04:42:16.305Z,82.09
2022-11-25T04:42:48.408Z,82.32
2022-11-25T04:43:22.150Z,82.42
2022-11-25T04:43:54.277Z,82.03
2022-11-25T04:44:27.553Z,82.03
2022-11-25T04:45:22.020Z,81.79
2022-11-25T04:46:45.620Z,81.65
2022-11-25T04:47:18.199Z,81.48
2022-11-25T04:47:51.073Z,81.56
2022-11-25T04:48:23.770Z,81.68
2022-11-25T04:48:55.616Z,81.90
2022-11-25T04:49:27.497Z,82.17
2022-11-25T04:49:59.511Z,82.30
2022-11-25T04:50:31.404Z,82.77
2022-11-25T04:51:04.187Z,82.76
2022-11-25T04:51:37.011Z,82.77
2022-11-25T04:52:09.099Z,83.11
2022-11-25T04:52:41.674Z,83.14
2022-11-25T04:53:13.657Z,82.85
2022-11-25T04:53:45.845Z,82.59
2022-11-25T04:54:17.929Z,82.63
2022-11-25T04:54:50.184Z,83.01
2022-11-25T04:55:22.607Z,83.36
2022-11-25T04:55:55.247Z,83.73
2022-11-25T04:56:27.384Z,84.03
2022-11-25T04:56:59.501Z,83.53
2022-11-25T04:57:31.632Z,83.42
2022-11-25T04:58:04.400Z,83.60
2022-11-25T04:58:55.980Z,83.01
2022-11-25T04:59:40.986Z,82.43
2022-11-25T05:00:14.302Z,82.45
2022-11-25T05:00:46.699Z,82.36
2022-11-25T05:01:19.336Z,81.91
2022-11-25T05:01:51.857Z,81.52
2022-11-25T05:02:27.486Z,81.46
2022-11-25T05:02:59.722Z,81.74
2022-11-25T05:03:32.762Z,81.84
2022-11-25T05:04:04.806Z,81.65
2022-11-25T05:04:39.074Z,81.44
2022-11-25T05:05:12.309Z,81.44
2022-11-25T05:05:44.452Z,81.03
2022-11-25T05:06:16.343Z,80.65
2022-11-25T05:06:51.575Z,80.66
2022-11-25T05:07:26.070Z,80.71
2022-11-25T05:07:58.959Z,80.82
2022-11-25T05:08:32.087Z,80.22
2022-11-25T05:09:04.651Z,79.89
2022-11-25T05:09:38.482Z,79.52
2022-11-25T05:10:10.578Z,79.58
2022-11-25T05:10:42.582Z,79.79
2022-11-25T05:11:14.469Z,80.09
2022-11-25T05:11:46.363Z,80.49
2022-11-25T05:12:23.948Z,81.11
2022-11-25T05:12:55.824Z,81.26
2022-11-25T05:13:27.987Z,81.15
2022-11-25T05:14:00.273Z,81.48
2022-11-25T05:14:32.692Z,81.70
2022-11-25T05:15:05.923Z,81.52
2022-11-25T05:15:38.632Z,81.45
2022-11-25T05:16:11.833Z,81.38
2022-11-25T05:16:43.805Z,81.05
2022-11-25T05:17:19.130Z,81.10
2022-11-25T05:17:50.965Z,81.02
2022-11-25T05:18:23.231Z,81.12
2022-11-25T05:18:57.917Z,81.37
2022-11-25T05:19:31.220Z,81.76
2022-11-25T05:20:04.912Z,81.87
2022-11-25T05:20:37.558Z,81.95
2022-11-25T05:21:09.540Z,81.96
2022-11-25T05:21:42.537Z,82.15
2022-11-25T05:22:17.529Z,82.58
2022-11-25T05:22:49.659Z,83.37
2022-11-25T05:23:21.876Z,83.47
2022-11-25T05:23:56.096Z,83.40
2022-11-25T05:24:28.643Z,83.95
2022-11-25T05:25:00.883Z,83.82
2022-11-25T05:25:32.931Z,83.21
2022-11-25T05:26:05.827Z,82.74
2022-11-25T05:26:39.012Z,82.75
2022-11-25T05:27:11.372Z,82.64
2022-11-25T05:27:43.330Z,81.98
2022-11-25T05:28:15.400Z,81.48
2022-11-25T05:28:47.691Z,81.37
2022-11-25T05:29:19.599Z,81.29
2022-11-25T05:29:56.001Z,81.18
2022-11-25T05:30:29.965Z,81.19
2022-11-25T05:31:04.113Z,81.50
2022-11-25T05:31:36.318Z,81.97
2022-11-25T05:32:09.151Z,81.87
2022-11-25T05:32:41.187Z,81.13
2022-11-25T05:33:13.251Z,80.30
2022-11-25T05:33:45.211Z,80.21
2022-11-25T05:34:17.195Z,80.27
2022-11-25T05:34:51.791Z,80.14
2022-11-25T05:35:23.732Z,80.19
2022-11-25T05:36:00.815Z,80.05
2022-11-25T05:36:33.199Z,80.25
2022-11-25T05:37:05.513Z,80.68
2022-11-25T05:37:38.300Z,80.51
2022-11-25T05:38:10.534Z,80.34
2022-11-25T05:38:43.023Z,80.93
2022-11-25T05:39:15.463Z,81.05
2022-11-25T05:39:55.172Z,80.93
2022-11-25T05:40:27.743Z,81.01
2022-11-25T05:41:02.622Z,81.19
2022-11-25T05:41:34.945Z,80.92
2022-11-25T05:42:07.558Z,81.12
2022-11-25T05:42:39.508Z,81.58
2022-11-25T05:43:11.731Z,81.78
2022-11-25T05:43:43.807Z,81.56
2022-11-25T05:44:22.440Z,82.08
2022-11-25T05:44:56.233Z,82.44
2022-11-25T05:45:28.257Z,82.71
2022-11-25T05:46:04.424Z,82.83
2022-11-25T05:46:36.796Z,82.76
2022-11-25T05:47:09.125Z,82.78
2022-11-25T05:47:40.985Z,82.66
2022-11-25T05:48:13.101Z,82.79
2022-11-25T05:48:45.081Z,83.00
2022-11-25T05:49:18.500Z,83.03
2022-11-25T05:49:50.459Z,83.01
2022-11-25T05:50:22.727Z,82.91
2022-11-25T05:51:09.105Z,82.81
2022-11-25T05:51:41.292Z,82.50
2022-11-25T05:52:13.504Z,96.72
2022-11-25T05:52:46.082Z,92.34
2022-11-25T05:53:18.006Z,90.11
2022-11-25T05:53:50.752Z,89.18
2022-11-25T05:54:23.338Z,87.09
2022-11-25T05:54:57.430Z,85.81
2022-11-25T05:55:29.908Z,86.10
2022-11-25T05:56:06.580Z,84.34
2022-11-25T05:56:41.697Z,83.86
2022-11-25T05:57:14.896Z,83.70
2022-11-25T05:57:46.917Z,86.50
2022-11-25T05:58:19.718Z,86.50
2022-11-25T05:58:55.038Z,86.18
2022-11-25T05:59:27.210Z,85.18
2022-11-25T06:00:00.938Z,84.50
2022-11-25T06:00:33.791Z,83.14
2022-11-25T06:01:09.403Z,83.20
2022-11-25T06:01:41.344Z,82.41
2022-11-25T06:02:13.374Z,82.15
2022-11-25T06:02:50.205Z,81.95
2022-11-25T06:03:26.947Z,81.63
2022-11-25T06:04:04.058Z,81.29
2022-11-25T06:04:36.285Z,81.27
2022-11-25T06:05:08.917Z,80.75
2022-11-25T06:05:41.290Z,80.41
2022-11-25T06:06:13.653Z,80.29
2022-11-25T06:06:46.273Z,80.53
2022-11-25T06:07:20.448Z,80.51
2022-11-25T06:07:54.624Z,79.68
2022-11-25T06:08:27.248Z,79.63
2022-11-25T06:08:59.609Z,79.69
2022-11-25T06:09:31.566Z,79.70
2022-11-25T06:10:03.726Z,80.07
2022-11-25T06:10:40.577Z,79.96
2022-11-25T06:11:15.465Z,80.12
2022-11-25T06:11:48.409Z,80.39
2022-11-25T06:12:23.517Z,80.81
2022-11-25T06:12:55.405Z,80.79
2022-11-25T06:13:27.320Z,80.83
2022-11-25T06:13:59.263Z,80.67
2022-11-25T06:14:31.180Z,80.28
2022-11-25T06:15:03.858Z,80.06
2022-11-25T06:15:40.837Z,80.70
2022-11-25T06:16:15.980Z,81.13
2022-11-25T06:16:48.992Z,81.29
2022-11-25T06:17:21.753Z,80.99
2022-11-25T06:17:54.407Z,80.78
2022-11-25T06:18:27.662Z,81.08
2022-11-25T06:19:01.270Z,81.36
2022-11-25T06:19:33.147Z,82.09
2022-11-25T06:20:07.196Z,82.17
2022-11-25T06:20:40.110Z,81.80
2022-11-25T06:21:14.348Z,81.81
2022-11-25T06:21:48.729Z,81.69
2022-11-25T06:22:21.152Z,81.50
2022-11-25T06:22:54.251Z,81.35
2022-11-25T06:23:27.515Z,80.92
2022-11-25T06:23:59.924Z,80.29
2022-11-25T06:24:31.979Z,79.92
2022-11-25T06:25:05.176Z,79.68
2022-11-25T06:25:37.531Z,79.89
2022-11-25T06:26:19.503Z,80.21
2022-11-25T06:26:51.364Z,80.37
2022-11-25T06:27:23.571Z,80.30
2022-11-25T06:28:12.536Z,79.95
2022-11-25T06:28:47.005Z,87.04
2022-11-25T06:29:18.952Z,84.76
2022-11-25T06:29:51.858Z,85.32
2022-11-25T06:30:24.062Z,89.80
2022-11-25T06:30:57.320Z,86.28
2022-11-25T06:31:29.936Z,85.14
2022-11-25T06:32:03.240Z,83.90
2022-11-25T06:32:37.649Z,82.70
2022-11-25T06:33:10.752Z,82.14
2022-11-25T06:33:43.228Z,81.61
2022-11-25T06:34:15.321Z,81.13
2022-11-25T06:34:47.235Z,80.82
2022-11-25T06:35:20.312Z,80.21
2022-11-25T06:35:52.685Z,79.58
2022-11-25T06:36:24.622Z,79.58
2022-11-25T06:36:56.685Z,79.41
2022-11-25T06:37:28.703Z,79.06
2022-11-25T06:38:01.409Z,79.21
2022-11-25T06:38:34.227Z,79.46
2022-11-25T06:39:06.187Z,79.53
2022-11-25T06:39:38.010Z,79.56
2022-11-25T06:40:10.193Z,79.96
2022-11-25T06:40:42.116Z,80.39
2022-11-25T06:41:14.826Z,80.57
2022-11-25T06:41:47.287Z,80.82
2022-11-25T06:42:19.115Z,80.82
2022-11-25T06:42:50.951Z,80.88
2022-11-25T06:43:23.097Z,80.85
2022-11-25T06:43:54.921Z,80.87
2022-11-25T06:44:26.818Z,80.98
2022-11-25T06:44:58.703Z,81.15
2022-11-25T06:45:30.606Z,80.87
2022-11-25T06:46:08.344Z,80.93
2022-11-25T06:46:40.804Z,81.19
2022-11-25T06:47:12.665Z,81.22
2022-11-25T06:47:44.546Z,80.89
2022-11-25T06:48:16.376Z,80.23
2022-11-25T06:48:48.527Z,80.10
2022-11-25T06:49:20.340Z,80.34
2022-11-25T06:49:52.267Z,80.57
2022-11-25T06:50:24.461Z,81.01
2022-11-25T06:50:57.873Z,80.99
2022-11-25T06:51:29.778Z,81.47
2022-11-25T06:52:01.698Z,82.10
2022-11-25T06:52:33.612Z,82.07
2022-11-25T06:53:05.449Z,82.10
2022-11-25T06:53:37.983Z,82.08
2022-11-25T06:54:10.413Z,81.83
2022-11-25T06:54:42.321Z,81.44
2022-11-25T06:55:14.905Z,80.60
2022-11-25T06:55:46.718Z,79.88
2022-11-25T06:56:22.716Z,79.11
2022-11-25T06:56:54.533Z,78.22
2022-11-25T06:57:26.463Z,77.97
2022-11-25T06:58:13.984Z,78.08
2022-11-25T06:58:51.278Z,77.62
2022-11-25T06:59:23.558Z,77.59
2022-11-25T06:59:55.407Z,77.28
2022-11-25T07:00:27.431Z,76.69
2022-11-25T07:01:13.068Z,75.78
2022-11-25T07:01:45.065Z,74.69
2022-11-25T07:02:17.057Z,73.36
2022-11-25T07:02:49.090Z,72.57
2022-11-25T07:03:21.095Z,72.19
2022-11-25T07:03:55.794Z,70.35
2022-11-25T07:04:27.956Z,68.18
2022-11-25T07:04:59.784Z,66.48
2022-11-25T07:05:31.635Z,66.02
2022-11-25T07:06:04.560Z,65.39
2022-11-25T07:06:36.389Z,64.31
2022-11-25T07:07:08.886Z,63.19
2022-11-25T07:07:40.778Z,61.52
2022-11-25T07:08:12.739Z,60.93
2022-11-25T07:08:45.383Z,60.99
2022-11-25T07:09:17.302Z,60.02
2022-11-25T07:09:49.460Z,59.17
2022-11-25T07:10:21.344Z,57.96
2022-11-25T07:10:53.644Z,57.84
2022-11-25T07:11:31.986Z,56.62
2022-11-25T07:12:05.780Z,56.96
2022-11-25T07:12:37.639Z,57.42
2022-11-25T07:13:09.588Z,55.98
2022-11-25T07:13:41.557Z,55.67
2022-11-25T07:14:15.421Z,54.79
2022-11-25T07:14:51.087Z,55.31
2022-11-25T07:15:23.719Z,55.25